WetterOnline ( https://www.wetteronline.de )

Wetter aktuell Upgant-Schott

Aktuelles Wetter: Norderney (16m)

6-stündlich | Neueste Meldungen
Ortszeit Temperatur Wetter
Do, 26.11. 13:00 9.7° C wolkenlos
Do, 26.11. 7:00 9.2° C bedeckt
Do, 26.11. 1:00 7.0° C bedeckt
Mi, 25.11. 19:00 6.4° C bedeckt
Mi, 25.11. 13:00 6.9° C wolkig
Mi, 25.11. 7:00 4.4° C bedeckt
Mi, 25.11. 1:00 5.8° C bedeckt
Di, 24.11. 19:00 8.8° C bedeckt
Ortszeit Temperatur Wetter
Do, 26.11. 16:00 8.8° C bedeckt
Do, 26.11. 15:50 8.8° C bedeckt
Do, 26.11. 15:40 8.9° C bedeckt
Do, 26.11. 15:30 9.0° C bedeckt
Do, 26.11. 15:20 9.0° C bedeckt
Do, 26.11. 15:10 9.0° C bedeckt
Do, 26.11. 15:00 9.0° C wolkig
Do, 26.11. 14:30 8.9° C wolkig
Do, 26.11. 14:00 9.3° C wolkig
Do, 26.11. 13:30 9.5° C wolkig
Do, 26.11. 13:00 9.7° C wolkenlos
Ortszeit Relative Feuchte Sichtweite
Do, 26.11. 13:00 73% 35 km
Do, 26.11. 7:00 93% 12 km
Do, 26.11. 1:00 93% 4.4 km
Mi, 25.11. 19:00 89% 10 km
Mi, 25.11. 13:00 79% 18 km
Mi, 25.11. 7:00 89% 9 km
Mi, 25.11. 1:00 89% 12 km
Di, 24.11. 19:00 85% 22 km
Ortszeit Relative Feuchte Sichtweite
Do, 26.11. 16:00 79% 40 km
Do, 26.11. 15:50 79% -
Do, 26.11. 15:40 78% -
Do, 26.11. 15:30 79% 50 km
Do, 26.11. 15:20 79% -
Do, 26.11. 15:10 80% -
Do, 26.11. 15:00 80% 35 km
Do, 26.11. 14:30 79% 40 km
Do, 26.11. 14:00 78% 30 km
Do, 26.11. 13:30 76% 35 km
Do, 26.11. 13:00 73% 35 km
Ortszeit Niederschlagsmenge Niederschlagsart
Do, 26.11. 13:00 0.1 l/m2 in 6 Std. Sprühregen
Do, 26.11. 7:00 0.1 l/m2 in 12 Std. Regen
Do, 26.11. 1:00 0.1 l/m2 in 6 Std. Regen
Mi, 25.11. 19:00 0.0 l/m2 in 12 Std. -
Mi, 25.11. 13:00 0.0 l/m2 in 6 Std. -
Mi, 25.11. 7:00 0.0 l/m2 in 12 Std. -
Mi, 25.11. 1:00 0.0 l/m2 in 6 Std. -
Di, 24.11. 19:00 0.0 l/m2 in 12 Std. -
Ortszeit Niederschlagsmenge Niederschlagsart
Do, 26.11. 16:00 0.0 l/m2 in 1 Std. -
Do, 26.11. 15:50 keine Meldung -
Do, 26.11. 15:40 keine Meldung -
Do, 26.11. 15:30 0.0 l/m2 in 1 Std. -
Do, 26.11. 15:20 keine Meldung -
Do, 26.11. 15:10 keine Meldung -
Do, 26.11. 15:00 0.0 l/m2 in 1 Std. -
Do, 26.11. 14:30 0.0 l/m2 in 1 Std. -
Do, 26.11. 14:00 0.0 l/m2 in 1 Std. -
Do, 26.11. 13:30 0.0 l/m2 in 1 Std. -
Do, 26.11. 13:00 0.0 l/m2 in 1 Std. Sprühregen
Ortszeit Stärke Spitze Richtung
km/h Bft. km/h Grad Sektor
Do, 26.11. 13:00 9 2 33 280° W
Do, 26.11. 7:00 25 4 36 320° NW
Do, 26.11. 1:00 18 3 29 190° S
Mi, 25.11. 19:00 13 3 35 200° S
Mi, 25.11. 13:00 22 4 36 180° S
Mi, 25.11. 7:00 22 4 36 180° S
Mi, 25.11. 1:00 22 4 32 170° S
Di, 24.11. 19:00 19 3 35 180° S
Ortszeit Stärke Spitze Richtung
km/h Bft. km/h Grad Sektor
Do, 26.11. 16:00 7 2 11 280° W
Do, 26.11. 15:50 7 2 - 280° W
Do, 26.11. 15:40 7 2 - 280° W
Do, 26.11. 15:30 7 2 9 290° W
Do, 26.11. 15:20 7 2 - 290° W
Do, 26.11. 15:10 7 2 - 290° W
Do, 26.11. 15:00 7 2 11 290° W
Do, 26.11. 14:30 9 2 11 280° W
Do, 26.11. 14:00 9 2 15 290° W
Do, 26.11. 13:30 11 2 15 270° W
Do, 26.11. 13:00 9 2 15 280° W
Ortszeit Untergrenze Bedeckung Gattung
total tief tief mittel hoch
Do, 26.11. 13:00 - 0/8 0/8 - - -
Do, 26.11. 7:00 240 m 8/8 8/8 - - -
Do, 26.11. 1:00 150 m 8/8 8/8 - - -
Mi, 25.11. 19:00 5700 m 8/8 8/8 - - -
Mi, 25.11. 13:00 4800 m 8/8 8/8 - - -
Mi, 25.11. 7:00 5400 m 8/8 8/8 - - -
Mi, 25.11. 1:00 5700 m 8/8 8/8 - - -
Di, 24.11. 19:00 1320 m 8/8 8/8 - - -
Ortszeit Bedeckungsgrad in Achtel und Wolkenuntergrenze
Do, 26.11. 16:00 8(4200m)
Do, 26.11. 15:50 8(4200m)
Do, 26.11. 15:40 8(4200m)
Do, 26.11. 15:30 8(4200m)
Do, 26.11. 15:20 8(4200m)
Do, 26.11. 15:10 8(4200m)
Do, 26.11. 15:00 2(750m) 7(4500m)
Do, 26.11. 14:30 5(4500m)
Do, 26.11. 14:00 7(4500m) 8(5400m)
Do, 26.11. 13:30 4(4500m) 5(5100m)
Do, 26.11. 13:00 keine Wolken
Ortszeit Luftdruck NN (hPa) Tendenz (hPa in 3 Std.)
Do, 26.11. 13:00 1020 + 0,6
Do, 26.11. 7:00 1018 + 1,3
Do, 26.11. 1:00 1016 0,0
Mi, 25.11. 19:00 1016 + 1,0
Mi, 25.11. 13:00 1015 - 0,4
Mi, 25.11. 7:00 1015 - 0,9
Mi, 25.11. 1:00 1017 - 1,1
Di, 24.11. 19:00 1019 - 0,7
Ortszeit Luftdruck NN (hPa) Tendenz (hPa in 3 Std.)
Do, 26.11. 16:00 1020 0,0
Do, 26.11. 15:50 1020 keine Meldung
Do, 26.11. 15:40 1020 keine Meldung
Do, 26.11. 15:30 1020 + 0,2
Do, 26.11. 15:20 1020 keine Meldung
Do, 26.11. 15:10 1020 keine Meldung
Do, 26.11. 15:00 1020 0,0
Do, 26.11. 14:30 1020 0,0
Do, 26.11. 14:00 1020 + 0,1
Do, 26.11. 13:30 1020 + 0,4
Do, 26.11. 13:00 1020 + 0,6
Ortszeit Schneehöhe (cm)
Do, 26.11. 13:00 0
Do, 26.11. 7:00 0
Do, 26.11. 1:00 0
Mi, 25.11. 19:00 0
Mi, 25.11. 13:00 0
Mi, 25.11. 7:00 0
Mi, 25.11. 1:00 0
Di, 24.11. 19:00 0
Ortszeit Schneehöhe (cm)
Do, 26.11. 16:00 0
Do, 26.11. 15:50 0
Do, 26.11. 15:40 0
Do, 26.11. 15:30 0
Do, 26.11. 15:20 0
Do, 26.11. 15:10 0
Do, 26.11. 15:00 0
Do, 26.11. 14:30 0
Do, 26.11. 14:00 0
Do, 26.11. 13:30 0
Do, 26.11. 13:00 0
Link zu dieser Seite / Seite empfehlen

Das Wetter in ...